createdAt,value
2022-11-16T00:01:06.480Z,-2.07
2022-11-16T00:03:34.529Z,-2.16
2022-11-16T00:06:04.199Z,-2.11
2022-11-16T00:08:36.550Z,-2.01
2022-11-16T00:11:12.694Z,-2.00
2022-11-16T00:13:40.749Z,-2.11
2022-11-16T00:16:08.736Z,-2.15
2022-11-16T00:18:35.847Z,-2.10
2022-11-16T00:21:04.509Z,-2.13
2022-11-16T00:23:32.399Z,-2.09
2022-11-16T00:26:06.831Z,-2.05
2022-11-16T00:28:34.000Z,-2.12
2022-11-16T00:31:03.284Z,-2.15
2022-11-16T00:33:30.214Z,-2.20
2022-11-16T00:35:57.552Z,-2.17
2022-11-16T00:38:24.682Z,-2.18
2022-11-16T00:40:51.507Z,-2.21
2022-11-16T00:43:18.500Z,-2.21
2022-11-16T00:45:45.703Z,-2.14
2022-11-16T00:48:12.881Z,-2.15
2022-11-16T00:50:40.129Z,-2.18
2022-11-16T00:53:07.950Z,-2.19
2022-11-16T00:55:35.102Z,-2.26
2022-11-16T00:58:01.910Z,-2.28
2022-11-16T01:00:28.892Z,-2.19
2022-11-16T01:02:55.815Z,-2.17
2022-11-16T01:05:23.684Z,-2.18
2022-11-16T01:07:51.430Z,-2.23
2022-11-16T01:10:21.433Z,-2.14
2022-11-16T01:12:49.984Z,-2.21
2022-11-16T01:15:18.647Z,-2.19
2022-11-16T01:17:45.682Z,-2.19
2022-11-16T01:20:18.765Z,-2.25
2022-11-16T01:22:46.069Z,-2.39
2022-11-16T01:25:14.872Z,-2.44
2022-11-16T01:27:42.580Z,-2.52
2022-11-16T01:30:12.125Z,-2.55
2022-11-16T01:32:39.040Z,-2.60
2022-11-16T01:35:06.741Z,-2.61
2022-11-16T01:37:33.883Z,-2.60
2022-11-16T01:40:00.858Z,-2.61
2022-11-16T01:42:29.417Z,-2.59
2022-11-16T01:45:27.708Z,-2.53
2022-11-16T01:47:55.161Z,-2.58
2022-11-16T01:53:45.379Z,-2.57
2022-11-16T01:56:12.262Z,-2.62
2022-11-16T01:58:39.088Z,-2.60
2022-11-16T02:01:06.150Z,-2.60
2022-11-16T02:03:33.082Z,-2.61
2022-11-16T02:06:18.240Z,-2.62
2022-11-16T02:09:37.517Z,-2.55
2022-11-16T02:12:04.286Z,-2.71
2022-11-16T02:14:55.436Z,-2.67
2022-11-16T02:17:27.963Z,-2.68
2022-11-16T02:20:18.884Z,-2.65
2022-11-16T02:23:08.606Z,-2.62
2022-11-16T02:25:58.194Z,-2.63
2022-11-16T02:28:39.936Z,-2.74
2022-11-16T02:31:12.768Z,-2.75
2022-11-16T02:33:42.179Z,-2.73
2022-11-16T02:36:14.668Z,-2.73
2022-11-16T02:38:50.538Z,-2.70
2022-11-16T02:41:21.704Z,-2.72
2022-11-16T02:44:00.911Z,-2.73
2022-11-16T02:46:32.838Z,-2.78
2022-11-16T02:49:02.143Z,-2.70
2022-11-16T02:51:30.560Z,-2.83
2022-11-16T02:54:24.776Z,-2.75
2022-11-16T02:56:54.275Z,-2.82
2022-11-16T02:59:22.740Z,-2.90
2022-11-16T03:02:23.480Z,-2.86
2022-11-16T03:04:55.041Z,-2.95
2022-11-16T03:07:30.351Z,-2.94
2022-11-16T03:09:58.161Z,-2.98
2022-11-16T03:12:31.127Z,-2.98
2022-11-16T03:15:02.282Z,-3.02
2022-11-16T03:17:44.403Z,-2.97
2022-11-16T03:20:20.739Z,-2.97
2022-11-16T03:22:54.889Z,-2.99
2022-11-16T03:25:24.850Z,-3.02
2022-11-16T03:28:09.097Z,-2.98
2022-11-16T03:30:42.394Z,-3.04
2022-11-16T03:33:20.826Z,-3.04
2022-11-16T03:35:57.051Z,-3.08
2022-11-16T03:38:26.504Z,-3.11
2022-11-16T03:40:59.846Z,-3.12
2022-11-16T03:43:28.066Z,-3.17
2022-11-16T03:45:56.120Z,-3.19
2022-11-16T03:48:22.833Z,-3.16
2022-11-16T03:50:49.885Z,-3.16
2022-11-16T03:53:16.936Z,-3.17
2022-11-16T03:55:49.567Z,-3.19
2022-11-16T03:58:18.667Z,-3.20
2022-11-16T04:00:45.756Z,-3.20
2022-11-16T04:03:12.698Z,-3.19
2022-11-16T04:05:57.961Z,-3.20
2022-11-16T04:08:43.371Z,-3.23
2022-11-16T04:11:32.947Z,-3.22
2022-11-16T04:14:18.423Z,-3.31
2022-11-16T04:17:03.723Z,-3.34
2022-11-16T04:19:49.260Z,-3.36
2022-11-16T04:22:52.489Z,-3.30
2022-11-16T04:25:25.483Z,-3.39
2022-11-16T04:28:13.226Z,-3.45
2022-11-16T04:31:03.107Z,-3.46
2022-11-16T04:33:50.168Z,-3.54
2022-11-16T04:36:35.688Z,-3.56
2022-11-16T04:39:03.116Z,-3.55
2022-11-16T04:41:52.751Z,-3.56
2022-11-16T04:44:20.196Z,-3.59
2022-11-16T04:47:05.695Z,-3.61
2022-11-16T04:49:32.873Z,-3.62
2022-11-16T04:51:59.740Z,-3.68
2022-11-16T04:54:26.443Z,-3.67
2022-11-16T04:56:53.246Z,-3.65
2022-11-16T04:59:19.996Z,-3.65
2022-11-16T05:02:05.104Z,-3.67
2022-11-16T05:04:31.879Z,-3.70
2022-11-16T05:06:58.693Z,-3.76
2022-11-16T05:09:25.664Z,-3.77
2022-11-16T05:11:52.740Z,-3.77
2022-11-16T05:14:19.608Z,-3.77
2022-11-16T05:16:46.344Z,-3.76
2022-11-16T05:19:31.825Z,-3.77
2022-11-16T05:21:58.624Z,-3.77
2022-11-16T05:24:34.363Z,-3.80
2022-11-16T05:27:13.511Z,-3.74
2022-11-16T05:29:40.325Z,-3.80
2022-11-16T05:32:07.778Z,-3.80
2022-11-16T05:34:34.645Z,-3.80
2022-11-16T05:37:01.919Z,-3.80
2022-11-16T05:39:28.823Z,-3.83
2022-11-16T05:41:56.804Z,-3.83
2022-11-16T05:44:23.742Z,-3.87
2022-11-16T05:46:50.912Z,-3.91
2022-11-16T05:49:18.158Z,-3.93
2022-11-16T05:51:46.242Z,-3.91
2022-11-16T05:54:15.844Z,-3.91
2022-11-16T05:56:43.027Z,-3.94
2022-11-16T05:59:13.787Z,-3.95
2022-11-16T06:01:43.611Z,-3.93
2022-11-16T06:04:10.958Z,-3.87
2022-11-16T06:06:38.249Z,-3.84
2022-11-16T06:09:05.594Z,-3.79
2022-11-16T06:11:35.972Z,-3.74
2022-11-16T06:14:03.995Z,-3.72
2022-11-16T06:16:31.381Z,-3.66
2022-11-16T06:18:59.411Z,-3.61
2022-11-16T06:21:26.412Z,-3.60
2022-11-16T06:23:53.626Z,-3.58
2022-11-16T06:26:20.417Z,-3.57
2022-11-16T06:28:47.292Z,-3.58
2022-11-16T06:31:14.220Z,-3.58
2022-11-16T06:33:40.996Z,-3.59
2022-11-16T06:36:08.195Z,-3.63
2022-11-16T06:38:35.129Z,-3.65
2022-11-16T06:41:02.044Z,-3.63
2022-11-16T06:43:28.867Z,-3.62
2022-11-16T06:45:58.037Z,-3.61
2022-11-16T06:48:25.040Z,-3.61
2022-11-16T06:50:52.885Z,-3.59
2022-11-16T06:53:23.464Z,-3.62
2022-11-16T06:55:52.791Z,-3.62
2022-11-16T06:58:19.592Z,-3.62
2022-11-16T07:00:46.326Z,-3.66
2022-11-16T07:03:13.121Z,-3.68
2022-11-16T07:05:41.982Z,-3.71
2022-11-16T07:08:09.203Z,-3.75
2022-11-16T07:10:36.960Z,-3.75
2022-11-16T07:13:04.448Z,-3.74
2022-11-16T07:15:32.170Z,-3.75
2022-11-16T07:18:08.440Z,-3.66
2022-11-16T07:20:37.914Z,-3.68
2022-11-16T07:23:06.317Z,-3.66
2022-11-16T07:25:34.781Z,-3.61
2022-11-16T07:28:01.567Z,-3.57
2022-11-16T07:30:28.353Z,-3.57
2022-11-16T07:32:59.413Z,-3.49
2022-11-16T07:35:26.332Z,-3.52
2022-11-16T07:37:53.027Z,-3.44
2022-11-16T07:40:20.680Z,-3.36
2022-11-16T07:42:47.520Z,-3.31
2022-11-16T07:45:14.386Z,-3.28
2022-11-16T07:47:41.164Z,-3.24
2022-11-16T07:50:08.438Z,-3.17
2022-11-16T07:52:35.413Z,-3.18
2022-11-16T07:55:02.258Z,-3.15
2022-11-16T07:57:30.603Z,-3.13
2022-11-16T07:59:57.421Z,-3.11
2022-11-16T08:02:24.237Z,-3.09
2022-11-16T08:04:51.154Z,-3.08
2022-11-16T08:07:18.019Z,-3.09
2022-11-16T08:09:44.967Z,-3.07
2022-11-16T08:12:13.070Z,-3.06
2022-11-16T08:14:39.915Z,-2.98
2022-11-16T08:17:08.397Z,-2.81
2022-11-16T08:19:36.660Z,-2.64
2022-11-16T08:22:03.843Z,-2.54
2022-11-16T08:24:30.721Z,-2.51
2022-11-16T08:26:58.820Z,-2.44
2022-11-16T08:29:26.425Z,-2.40
2022-11-16T08:31:53.655Z,-2.36
2022-11-16T08:34:21.327Z,-2.33
2022-11-16T08:36:48.348Z,-2.33
2022-11-16T08:39:15.209Z,-2.33
2022-11-16T08:41:42.801Z,-2.31
2022-11-16T08:44:09.770Z,-2.29
2022-11-16T08:46:36.544Z,-2.31
2022-11-16T08:49:03.405Z,-2.34
2022-11-16T08:51:30.186Z,-2.33
2022-11-16T08:53:58.629Z,-2.35
2022-11-16T08:56:30.184Z,-2.34
2022-11-16T08:58:59.189Z,-2.25
2022-11-16T09:01:29.090Z,-2.19
2022-11-16T09:03:57.268Z,-2.15
2022-11-16T09:06:25.623Z,-2.03
2022-11-16T09:08:52.798Z,-1.81
2022-11-16T09:11:22.339Z,-1.60
2022-11-16T09:13:51.803Z,-1.53
2022-11-16T09:16:21.054Z,-1.56
2022-11-16T09:18:49.679Z,-1.57
2022-11-16T09:21:30.126Z,-1.56
2022-11-16T09:23:58.009Z,-1.68
2022-11-16T09:26:26.328Z,-1.68
2022-11-16T09:28:58.933Z,-1.73
2022-11-16T09:31:27.660Z,-1.80
2022-11-16T09:33:58.362Z,-1.60
2022-11-16T09:36:26.488Z,-1.51
2022-11-16T09:39:25.816Z,-1.45
2022-11-16T09:42:18.851Z,-1.29
2022-11-16T09:45:12.472Z,-1.21
2022-11-16T09:47:50.380Z,-1.19
2022-11-16T09:50:29.760Z,-1.13
2022-11-16T09:53:02.308Z,-1.09
2022-11-16T09:55:35.544Z,-1.05
2022-11-16T09:58:12.055Z,-1.04
2022-11-16T10:00:44.239Z,-0.93
2022-11-16T10:03:13.609Z,-0.87
2022-11-16T10:06:03.409Z,-0.72
2022-11-16T10:08:45.758Z,-0.73
2022-11-16T10:11:30.681Z,-0.82
2022-11-16T10:14:19.011Z,-0.61
2022-11-16T10:17:01.396Z,-0.50
2022-11-16T10:19:52.997Z,-0.32
2022-11-16T10:22:56.092Z,-0.13
2022-11-16T10:25:28.426Z,0.09
2022-11-16T10:28:07.017Z,0.57
2022-11-16T10:30:54.720Z,1.12
2022-11-16T10:33:25.526Z,1.66
2022-11-16T10:35:56.026Z,1.93
2022-11-16T10:38:27.828Z,2.30
2022-11-16T10:41:13.651Z,2.69
2022-11-16T10:43:42.188Z,2.67
2022-11-16T10:46:47.451Z,2.66
2022-11-16T10:49:29.253Z,2.27
2022-11-16T10:51:56.110Z,1.68
2022-11-16T10:54:22.977Z,1.34
2022-11-16T10:57:02.561Z,1.08
2022-11-16T10:59:48.520Z,0.82
2022-11-16T11:02:36.205Z,0.52
2022-11-16T11:05:15.646Z,0.18
2022-11-16T11:07:46.859Z,-0.03
2022-11-16T11:10:41.459Z,-0.16
2022-11-16T11:13:11.243Z,-0.34
2022-11-16T11:15:42.927Z,-0.34
2022-11-16T11:18:15.912Z,-0.35
2022-11-16T11:20:45.642Z,-0.42
2022-11-16T11:23:22.131Z,-0.35
2022-11-16T11:25:56.269Z,-0.44
2022-11-16T11:28:27.742Z,-0.55
2022-11-16T11:31:03.960Z,-0.49
2022-11-16T11:33:41.629Z,-0.58
2022-11-16T11:36:20.809Z,-0.64
2022-11-16T11:39:07.318Z,-0.68
2022-11-16T11:41:57.813Z,-0.83
2022-11-16T11:44:36.420Z,-0.83
2022-11-16T11:50:27.180Z,-0.92
2022-11-16T11:52:59.526Z,-1.02
2022-11-16T11:55:26.454Z,-1.04
2022-11-16T11:57:54.006Z,-1.04
2022-11-16T12:00:21.250Z,-1.04
2022-11-16T12:03:03.782Z,-0.98
2022-11-16T12:05:53.449Z,-0.93
2022-11-16T12:08:35.186Z,-1.06
2022-11-16T12:11:15.178Z,-1.00
2022-11-16T12:14:19.255Z,-0.87
2022-11-16T12:16:54.664Z,-0.62
2022-11-16T12:19:39.582Z,-0.53
2022-11-16T12:22:33.315Z,-0.47
2022-11-16T12:25:30.803Z,-0.55
2022-11-16T12:28:25.057Z,-0.66
2022-11-16T12:30:51.769Z,-0.84
2022-11-16T12:33:44.301Z,-0.85
2022-11-16T12:36:32.363Z,-0.84
2022-11-16T12:39:26.641Z,-0.84
2022-11-16T12:42:18.168Z,-0.88
2022-11-16T12:45:10.526Z,-0.71
2022-11-16T12:47:55.285Z,-0.84
2022-11-16T12:50:40.776Z,-0.94
2022-11-16T12:53:29.192Z,-1.01
2022-11-16T12:56:04.700Z,-1.09
2022-11-16T12:58:46.634Z,-1.21
2022-11-16T13:01:36.451Z,-1.21
2022-11-16T13:04:13.113Z,-1.21
2022-11-16T13:07:25.086Z,-1.21
2022-11-16T13:10:01.073Z,-1.40
2022-11-16T13:12:30.567Z,-1.56
2022-11-16T13:15:00.421Z,-1.66
2022-11-16T13:17:31.039Z,-1.67
2022-11-16T13:20:18.718Z,-1.64
2022-11-16T13:23:17.608Z,-1.68
2022-11-16T13:25:57.300Z,-1.82
2022-11-16T13:28:40.511Z,-1.85
2022-11-16T13:31:21.810Z,-1.77
2022-11-16T13:33:53.562Z,-1.76
2022-11-16T13:36:32.262Z,-1.79
2022-11-16T13:38:59.046Z,-2.01
2022-11-16T13:41:27.378Z,-2.11
2022-11-16T13:43:54.706Z,-2.20
2022-11-16T13:46:53.750Z,-2.23
2022-11-16T13:49:40.978Z,-2.15
2022-11-16T13:52:23.785Z,-2.19
2022-11-16T13:54:55.440Z,-2.24
2022-11-16T13:57:24.721Z,-2.27
2022-11-16T14:00:05.109Z,-2.24
2022-11-16T14:02:36.239Z,-2.34
2022-11-16T14:05:29.636Z,-2.31
2022-11-16T14:07:56.425Z,-2.42
2022-11-16T14:10:50.058Z,-2.35
2022-11-16T14:13:44.204Z,-2.38
2022-11-16T14:16:20.294Z,-2.48
2022-11-16T14:18:55.823Z,-2.55
2022-11-16T14:21:40.867Z,-2.64
2022-11-16T14:24:25.709Z,-2.59
2022-11-16T14:27:34.183Z,-2.53
2022-11-16T14:30:18.616Z,-2.57
2022-11-16T14:32:52.474Z,-2.60
2022-11-16T14:35:38.967Z,-2.55
2022-11-16T14:38:33.705Z,-2.57
2022-11-16T14:41:03.228Z,-2.65
2022-11-16T14:43:40.591Z,-2.64
2022-11-16T14:46:14.233Z,-2.71
2022-11-16T14:48:46.460Z,-2.71
2022-11-16T14:51:30.782Z,-2.69
2022-11-16T14:54:05.210Z,-2.78
2022-11-16T14:56:31.962Z,-2.88
2022-11-16T14:59:00.694Z,-2.88
2022-11-16T15:01:36.459Z,-2.84
2022-11-16T15:04:11.389Z,-2.84
2022-11-16T15:06:45.933Z,-2.88
2022-11-16T15:09:21.017Z,-2.92
2022-11-16T15:12:08.398Z,-2.97
2022-11-16T15:14:41.656Z,-2.98
2022-11-16T15:17:09.883Z,-3.04
2022-11-16T15:19:36.641Z,-3.08
2022-11-16T15:22:04.417Z,-3.09
2022-11-16T15:24:35.236Z,-3.08
2022-11-16T15:27:20.147Z,-3.07
2022-11-16T15:32:17.872Z,-3.13
2022-11-16T15:34:54.283Z,-3.12
2022-11-16T15:37:30.886Z,-3.13
2022-11-16T15:39:59.118Z,-3.21
2022-11-16T15:42:28.130Z,-3.21
2022-11-16T15:44:56.129Z,-3.24
2022-11-16T15:47:23.968Z,-3.25
2022-11-16T15:49:53.092Z,-3.29
2022-11-16T15:52:46.275Z,-3.19
2022-11-16T15:55:37.048Z,-3.22
2022-11-16T15:58:26.429Z,-3.28
2022-11-16T16:00:54.630Z,-3.33
2022-11-16T16:03:31.550Z,-3.31
2022-11-16T16:05:58.936Z,-3.37
2022-11-16T16:08:27.223Z,-3.38
2022-11-16T16:11:26.453Z,-3.33
2022-11-16T16:14:02.419Z,-3.35
2022-11-16T16:16:30.369Z,-3.39
2022-11-16T16:19:04.970Z,-3.37
2022-11-16T16:21:45.619Z,-3.31
2022-11-16T16:24:41.183Z,-3.28
2022-11-16T16:27:25.627Z,-3.31
2022-11-16T16:29:54.428Z,-3.35
2022-11-16T16:32:24.258Z,-3.38
2022-11-16T16:34:52.632Z,-3.41
2022-11-16T16:37:19.639Z,-3.42
2022-11-16T16:39:46.557Z,-3.44
2022-11-16T16:42:15.322Z,-3.45
2022-11-16T16:44:43.505Z,-3.50
2022-11-16T16:47:10.982Z,-3.54
2022-11-16T16:49:38.158Z,-3.58
2022-11-16T16:52:06.099Z,-3.60
2022-11-16T16:54:32.935Z,-3.65
2022-11-16T16:57:02.383Z,-3.66
2022-11-16T16:59:32.683Z,-3.69
2022-11-16T17:01:59.949Z,-3.73
2022-11-16T17:04:26.800Z,-3.74
2022-11-16T17:06:53.942Z,-3.76
2022-11-16T17:09:21.108Z,-3.79
2022-11-16T17:11:48.108Z,-3.84
2022-11-16T17:14:14.905Z,-3.86
2022-11-16T17:16:41.701Z,-3.87
2022-11-16T17:19:08.477Z,-3.89
2022-11-16T17:21:35.199Z,-3.90
2022-11-16T17:24:02.037Z,-3.92
2022-11-16T17:26:29.625Z,-3.93
2022-11-16T17:28:57.714Z,-3.94
2022-11-16T17:31:26.058Z,-3.95
2022-11-16T17:33:53.144Z,-3.97
2022-11-16T17:36:20.484Z,-3.99
2022-11-16T17:38:47.361Z,-4.04
2022-11-16T17:41:15.267Z,-4.05
2022-11-16T17:43:43.783Z,-4.08
2022-11-16T17:46:15.601Z,-4.07
2022-11-16T17:48:43.367Z,-4.00
2022-11-16T17:51:12.156Z,-4.08
2022-11-16T17:53:39.993Z,-4.09
2022-11-16T17:56:08.034Z,-4.10
2022-11-16T17:58:34.920Z,-4.12
2022-11-16T18:01:01.875Z,-4.12
2022-11-16T18:03:28.881Z,-4.17
2022-11-16T18:06:11.166Z,-4.16
2022-11-16T18:08:38.073Z,-4.30
2022-11-16T18:11:06.911Z,-4.30
2022-11-16T18:13:34.711Z,-4.35
2022-11-16T18:16:15.628Z,-4.38
2022-11-16T18:18:43.973Z,-4.46
2022-11-16T18:21:15.833Z,-4.49
2022-11-16T18:23:46.737Z,-4.53
2022-11-16T18:26:16.367Z,-4.52
2022-11-16T18:28:46.338Z,-4.52
2022-11-16T18:31:18.237Z,-4.52
2022-11-16T18:33:45.257Z,-4.48
2022-11-16T18:36:13.204Z,-4.45
2022-11-16T18:38:39.986Z,-4.50
2022-11-16T18:41:12.905Z,-4.51
2022-11-16T18:43:40.476Z,-4.57
2022-11-16T18:46:07.758Z,-4.59
2022-11-16T18:48:34.695Z,-4.60
2022-11-16T18:51:03.417Z,-4.56
2022-11-16T18:53:31.831Z,-4.55
2022-11-16T18:55:58.903Z,-4.54
2022-11-16T19:01:17.011Z,-4.45
2022-11-16T19:03:44.164Z,-4.43
2022-11-16T19:06:11.890Z,-4.43
2022-11-16T19:08:41.463Z,-4.39
2022-11-16T19:11:14.171Z,-4.34
2022-11-16T19:13:43.207Z,-4.34
2022-11-16T19:16:12.189Z,-4.30
2022-11-16T19:18:39.508Z,-4.28
2022-11-16T19:21:20.065Z,-4.23
2022-11-16T19:23:49.568Z,-4.19
2022-11-16T19:26:18.275Z,-4.15
2022-11-16T19:28:47.044Z,-4.13
2022-11-16T19:31:28.727Z,-4.05
2022-11-16T19:34:00.861Z,-4.03
2022-11-16T19:36:29.701Z,-3.99
2022-11-16T19:38:56.808Z,-4.04
2022-11-16T19:41:24.526Z,-4.08
2022-11-16T19:43:53.111Z,-4.10
2022-11-16T19:46:24.393Z,-4.07
2022-11-16T19:48:51.799Z,-4.00
2022-11-16T19:51:21.364Z,-3.92
2022-11-16T19:53:48.635Z,-3.89
2022-11-16T19:56:18.496Z,-3.86
2022-11-16T19:58:45.807Z,-3.89
2022-11-16T20:01:17.063Z,-3.86
2022-11-16T20:03:46.059Z,-3.83
2022-11-16T20:06:18.153Z,-3.74
2022-11-16T20:08:56.484Z,-3.64
2022-11-16T20:11:25.982Z,-3.64
2022-11-16T20:13:54.320Z,-3.65
2022-11-16T20:16:23.842Z,-3.68
2022-11-16T20:18:51.956Z,-3.71
2022-11-16T20:21:22.745Z,-3.71
2022-11-16T20:23:51.771Z,-3.78
2022-11-16T20:26:19.848Z,-3.76
2022-11-16T20:28:47.761Z,-3.84
2022-11-16T20:31:16.719Z,-3.87
2022-11-16T20:33:50.588Z,-3.84
2022-11-16T20:36:17.424Z,-3.91
2022-11-16T20:38:44.353Z,-3.93
2022-11-16T20:41:16.433Z,-3.91
2022-11-16T20:43:44.732Z,-3.87
2022-11-16T20:46:14.241Z,-3.83
2022-11-16T20:48:42.603Z,-3.83
2022-11-16T20:51:13.969Z,-3.81
2022-11-16T20:53:40.817Z,-3.84
2022-11-16T20:56:07.945Z,-3.82
2022-11-16T20:58:35.055Z,-3.80
2022-11-16T21:01:07.990Z,-3.74
2022-11-16T21:03:35.312Z,-3.79
2022-11-16T21:06:02.519Z,-3.79
2022-11-16T21:08:30.050Z,-3.69
2022-11-16T21:10:57.251Z,-3.65
2022-11-16T21:13:42.908Z,-3.42
2022-11-16T21:16:13.713Z,-3.09
2022-11-16T21:18:40.600Z,-3.00
2022-11-16T21:21:12.206Z,-3.06
2022-11-16T21:23:41.036Z,-3.22
2022-11-16T21:26:11.461Z,-3.26
2022-11-16T21:28:39.245Z,-3.36
2022-11-16T21:31:11.438Z,-3.34
2022-11-16T21:33:38.406Z,-3.28
2022-11-16T21:36:14.893Z,-3.24
2022-11-16T21:38:42.003Z,-3.34
2022-11-16T21:41:13.426Z,-3.30
2022-11-16T21:43:40.886Z,-3.07
2022-11-16T21:46:11.396Z,-2.83
2022-11-16T21:48:38.644Z,-2.59
2022-11-16T21:51:13.997Z,-2.36
2022-11-16T21:53:40.902Z,-2.18
2022-11-16T21:56:12.872Z,-2.16
2022-11-16T21:58:40.316Z,-2.36
2022-11-16T22:01:07.096Z,-2.60
2022-11-16T22:03:34.405Z,-2.81
2022-11-16T22:06:22.368Z,-2.88
2022-11-16T22:08:49.284Z,-2.68
2022-11-16T22:11:16.884Z,-2.24
2022-11-16T22:13:46.559Z,-2.02
2022-11-16T22:16:17.072Z,-1.92
2022-11-16T22:18:44.280Z,-1.98
2022-11-16T22:21:11.465Z,-1.98
2022-11-16T22:23:38.719Z,-1.97
2022-11-16T22:26:07.325Z,-2.00
2022-11-16T22:28:34.921Z,-1.90
2022-11-16T22:31:11.077Z,-1.78
2022-11-16T22:33:38.487Z,-1.78
2022-11-16T22:36:08.377Z,-1.84
2022-11-16T22:38:35.437Z,-1.98
2022-11-16T22:41:02.491Z,-2.08
2022-11-16T22:43:30.544Z,-2.11
2022-11-16T22:46:02.493Z,-1.90
2022-11-16T22:48:36.479Z,-1.76
2022-11-16T22:51:06.656Z,-1.98
2022-11-16T22:53:34.476Z,-1.89
2022-11-16T22:56:09.568Z,-1.63
2022-11-16T22:58:37.725Z,-1.54
2022-11-16T23:01:08.694Z,-1.42
2022-11-16T23:03:36.620Z,-1.49
2022-11-16T23:06:05.133Z,-1.64
2022-11-16T23:08:32.762Z,-1.86
2022-11-16T23:11:34.577Z,-1.88
2022-11-16T23:14:20.946Z,-2.01
2022-11-16T23:16:48.376Z,-1.96
2022-11-16T23:19:36.079Z,-1.97
2022-11-16T23:22:22.390Z,-2.05
2022-11-16T23:25:07.524Z,-2.02
2022-11-16T23:27:43.616Z,-1.83
2022-11-16T23:30:13.093Z,-1.66
2022-11-16T23:32:41.383Z,-1.55
2022-11-16T23:35:09.426Z,-1.45
2022-11-16T23:37:50.017Z,-1.30
2022-11-16T23:40:17.294Z,-1.13
2022-11-16T23:43:02.486Z,-1.21
2022-11-16T23:45:29.559Z,-1.30
2022-11-16T23:47:56.312Z,-1.36
2022-11-16T23:50:23.147Z,-1.29
2022-11-16T23:52:49.929Z,-1.40
2022-11-16T23:55:16.687Z,-1.60
2022-11-16T23:57:43.442Z,-1.77
